Freeburg, Minnesota
Current Conditions -  °F | °C
As of 6:53 AM on Thursday 18 Dec 2014 (Local Time) from KLSE Reporting Station
Overcast Overcast  
Wind Chill: 22°   Ceiling: 1700
Heat Index: 22°   Visibility: 10mi
Dew Point: 15°   Wind: 0mph
Humidity: 75%   Direction: NA
Pressure: 30.3"   Gusts: NA
Location:  43.6028°N, 91.445°W
Report Text: KLSE 181253Z 00000KT 10SM OVC017 M06/M09 A3030 RMK AO2 SLP277 T10561094
Loading
Personal Weather Stations






























Interactive Weather Map New forecast layout! Learn more

10-Day Weather Forecast

Advertisements
Track Severe Weather on mobile